sensor_id;sensor_type;location;lat;lon;timestamp;P1;durP1;ratioP1;P2;durP2;ratioP2
3677;SDS011;1855;50.934;6.958;2022-10-16T00:01:36;2.60;;;2.40;;
3677;SDS011;1855;50.934;6.958;2022-10-16T00:04:03;2.70;;;2.30;;
3677;SDS011;1855;50.934;6.958;2022-10-16T00:06:30;2.05;;;1.95;;
3677;SDS011;1855;50.934;6.958;2022-10-16T00:08:59;2.50;;;2.20;;
3677;SDS011;1855;50.934;6.958;2022-10-16T00:11:26;2.03;;;1.92;;
3677;SDS011;1855;50.934;6.958;2022-10-16T00:13:55;2.40;;;1.90;;
3677;SDS011;1855;50.934;6.958;2022-10-16T00:16:24;2.20;;;2.00;;
3677;SDS011;1855;50.934;6.958;2022-10-16T00:18:51;1.90;;;1.80;;
3677;SDS011;1855;50.934;6.958;2022-10-16T00:21:18;3.03;;;2.20;;
3677;SDS011;1855;50.934;6.958;2022-10-16T00:23:49;1.80;;;1.70;;
3677;SDS011;1855;50.934;6.958;2022-10-16T00:26:18;2.00;;;1.50;;
3677;SDS011;1855;50.934;6.958;2022-10-16T00:28:46;2.13;;;1.80;;
3677;SDS011;1855;50.934;6.958;2022-10-16T00:31:13;1.40;;;1.30;;
3677;SDS011;1855;50.934;6.958;2022-10-16T00:33:40;2.38;;;1.55;;
3677;SDS011;1855;50.934;6.958;2022-10-16T00:36:09;2.10;;;1.58;;
3677;SDS011;1855;50.934;6.958;2022-10-16T00:38:37;1.37;;;1.20;;
3677;SDS011;1855;50.934;6.958;2022-10-16T00:41:04;2.45;;;1.67;;
3677;SDS011;1855;50.934;6.958;2022-10-16T00:43:34;2.60;;;1.70;;
3677;SDS011;1855;50.934;6.958;2022-10-16T00:46:05;1.50;;;1.40;;
3677;SDS011;1855;50.934;6.958;2022-10-16T00:48:36;1.70;;;1.30;;
3677;SDS011;1855;50.934;6.958;2022-10-16T00:51:03;1.60;;;1.40;;
3677;SDS011;1855;50.934;6.958;2022-10-16T00:53:32;1.80;;;1.50;;
3677;SDS011;1855;50.934;6.958;2022-10-16T00:55:58;2.40;;;1.38;;
3677;SDS011;1855;50.934;6.958;2022-10-16T00:58:25;2.00;;;1.30;;
3677;SDS011;1855;50.934;6.958;2022-10-16T01:00:54;1.20;;;1.10;;
3677;SDS011;1855;50.934;6.958;2022-10-16T01:03:25;2.10;;;1.40;;
3677;SDS011;1855;50.934;6.958;2022-10-16T01:05:59;1.60;;;1.30;;
3677;SDS011;1855;50.934;6.958;2022-10-16T01:08:42;2.17;;;1.50;;
3677;SDS011;1855;50.934;6.958;2022-10-16T01:11:17;1.40;;;1.30;;
3677;SDS011;1855;50.934;6.958;2022-10-16T01:13:51;1.98;;;1.30;;
3677;SDS011;1855;50.934;6.958;2022-10-16T01:16:24;1.80;;;1.30;;
3677;SDS011;1855;50.934;6.958;2022-10-16T01:18:59;2.25;;;1.58;;
3677;SDS011;1855;50.934;6.958;2022-10-16T01:21:31;1.90;;;1.40;;
3677;SDS011;1855;50.934;6.958;2022-10-16T01:24:01;1.98;;;1.30;;
3677;SDS011;1855;50.934;6.958;2022-10-16T01:26:36;2.65;;;1.20;;
3677;SDS011;1855;50.934;6.958;2022-10-16T01:29:18;2.20;;;1.40;;
3677;SDS011;1855;50.934;6.958;2022-10-16T01:31:53;1.50;;;1.40;;
3677;SDS011;1855;50.934;6.958;2022-10-16T01:34:25;1.60;;;1.50;;
3677;SDS011;1855;50.934;6.958;2022-10-16T01:37:00;1.60;;;1.23;;
3677;SDS011;1855;50.934;6.958;2022-10-16T01:39:32;1.70;;;1.40;;
3677;SDS011;1855;50.934;6.958;2022-10-16T01:42:03;2.03;;;1.83;;
3677;SDS011;1855;50.934;6.958;2022-10-16T01:44:35;1.65;;;1.50;;
3677;SDS011;1855;50.934;6.958;2022-10-16T01:47:03;1.80;;;1.25;;
3677;SDS011;1855;50.934;6.958;2022-10-16T01:49:32;1.95;;;1.40;;
3677;SDS011;1855;50.934;6.958;2022-10-16T01:52:02;1.48;;;1.38;;
3677;SDS011;1855;50.934;6.958;2022-10-16T01:54:32;1.60;;;1.40;;
3677;SDS011;1855;50.934;6.958;2022-10-16T01:57:01;2.10;;;1.42;;
3677;SDS011;1855;50.934;6.958;2022-10-16T01:59:31;1.80;;;1.50;;
3677;SDS011;1855;50.934;6.958;2022-10-16T02:02:00;1.95;;;1.50;;
3677;SDS011;1855;50.934;6.958;2022-10-16T02:04:33;2.50;;;1.55;;
3677;SDS011;1855;50.934;6.958;2022-10-16T02:07:04;1.40;;;1.30;;
3677;SDS011;1855;50.934;6.958;2022-10-16T02:09:32;1.60;;;1.50;;
3677;SDS011;1855;50.934;6.958;2022-10-16T02:12:00;1.98;;;1.50;;
3677;SDS011;1855;50.934;6.958;2022-10-16T02:14:31;1.70;;;1.35;;
3677;SDS011;1855;50.934;6.958;2022-10-16T02:17:00;2.25;;;1.20;;
3677;SDS011;1855;50.934;6.958;2022-10-16T02:19:26;2.33;;;1.40;;
3677;SDS011;1855;50.934;6.958;2022-10-16T02:21:53;1.75;;;1.40;;
3677;SDS011;1855;50.934;6.958;2022-10-16T02:24:26;2.60;;;1.38;;
3677;SDS011;1855;50.934;6.958;2022-10-16T02:27:00;1.77;;;1.38;;
3677;SDS011;1855;50.934;6.958;2022-10-16T02:29:33;1.40;;;1.30;;
3677;SDS011;1855;50.934;6.958;2022-10-16T02:32:05;1.70;;;1.00;;
3677;SDS011;1855;50.934;6.958;2022-10-16T02:34:35;1.27;;;1.13;;
3677;SDS011;1855;50.934;6.958;2022-10-16T02:37:03;1.80;;;1.20;;
3677;SDS011;1855;50.934;6.958;2022-10-16T02:39:31;1.80;;;1.40;;
3677;SDS011;1855;50.934;6.958;2022-10-16T02:41:59;1.10;;;0.90;;
3677;SDS011;1855;50.934;6.958;2022-10-16T02:44:26;1.90;;;1.30;;
3677;SDS011;1855;50.934;6.958;2022-10-16T02:46:53;2.28;;;1.20;;
3677;SDS011;1855;50.934;6.958;2022-10-16T02:49:21;1.80;;;1.20;;
3677;SDS011;1855;50.934;6.958;2022-10-16T02:51:48;1.70;;;1.20;;
3677;SDS011;1855;50.934;6.958;2022-10-16T02:54:14;1.63;;;1.23;;
3677;SDS011;1855;50.934;6.958;2022-10-16T02:56:41;1.27;;;1.00;;
3677;SDS011;1855;50.934;6.958;2022-10-16T02:59:08;1.23;;;1.05;;
3677;SDS011;1855;50.934;6.958;2022-10-16T03:01:35;2.42;;;1.20;;
3677;SDS011;1855;50.934;6.958;2022-10-16T03:04:02;1.13;;;1.00;;
3677;SDS011;1855;50.934;6.958;2022-10-16T03:06:30;1.10;;;1.00;;
3677;SDS011;1855;50.934;6.958;2022-10-16T03:08:57;2.15;;;1.20;;
3677;SDS011;1855;50.934;6.958;2022-10-16T03:11:23;1.20;;;1.10;;
3677;SDS011;1855;50.934;6.958;2022-10-16T03:13:51;2.27;;;1.00;;
3677;SDS011;1855;50.934;6.958;2022-10-16T03:16:18;1.80;;;1.20;;
3677;SDS011;1855;50.934;6.958;2022-10-16T03:18:47;1.48;;;1.10;;
3677;SDS011;1855;50.934;6.958;2022-10-16T03:21:14;1.30;;;1.20;;
3677;SDS011;1855;50.934;6.958;2022-10-16T03:23:42;1.80;;;1.25;;
3677;SDS011;1855;50.934;6.958;2022-10-16T03:26:09;1.85;;;1.20;;
3677;SDS011;1855;50.934;6.958;2022-10-16T03:28:35;1.40;;;1.00;;
3677;SDS011;1855;50.934;6.958;2022-10-16T03:31:02;1.20;;;1.10;;
3677;SDS011;1855;50.934;6.958;2022-10-16T03:33:29;1.58;;;1.00;;
3677;SDS011;1855;50.934;6.958;2022-10-16T03:35:56;2.10;;;1.00;;
3677;SDS011;1855;50.934;6.958;2022-10-16T03:38:22;1.90;;;0.90;;
3677;SDS011;1855;50.934;6.958;2022-10-16T03:40:51;1.58;;;1.00;;
3677;SDS011;1855;50.934;6.958;2022-10-16T03:43:17;0.90;;;0.80;;
3677;SDS011;1855;50.934;6.958;2022-10-16T03:45:44;1.30;;;1.00;;
3677;SDS011;1855;50.934;6.958;2022-10-16T03:48:11;1.50;;;0.90;;
3677;SDS011;1855;50.934;6.958;2022-10-16T03:50:38;1.67;;;0.85;;
3677;SDS011;1855;50.934;6.958;2022-10-16T03:53:04;1.10;;;1.00;;
3677;SDS011;1855;50.934;6.958;2022-10-16T03:55:31;1.92;;;0.80;;
3677;SDS011;1855;50.934;6.958;2022-10-16T03:58:00;1.30;;;0.90;;
3677;SDS011;1855;50.934;6.958;2022-10-16T04:00:26;1.20;;;0.85;;
3677;SDS011;1855;50.934;6.958;2022-10-16T04:02:54;1.30;;;0.90;;
3677;SDS011;1855;50.934;6.958;2022-10-16T04:05:21;1.00;;;0.90;;
3677;SDS011;1855;50.934;6.958;2022-10-16T04:07:49;1.75;;;1.00;;
3677;SDS011;1855;50.934;6.958;2022-10-16T04:10:15;3.15;;;1.42;;
3677;SDS011;1855;50.934;6.958;2022-10-16T04:12:42;1.35;;;1.10;;
3677;SDS011;1855;50.934;6.958;2022-10-16T04:15:10;1.80;;;1.20;;
3677;SDS011;1855;50.934;6.958;2022-10-16T04:17:37;1.50;;;1.10;;
3677;SDS011;1855;50.934;6.958;2022-10-16T04:20:04;1.20;;;0.90;;
3677;SDS011;1855;50.934;6.958;2022-10-16T04:22:32;1.40;;;1.00;;
3677;SDS011;1855;50.934;6.958;2022-10-16T04:24:58;2.40;;;0.90;;
3677;SDS011;1855;50.934;6.958;2022-10-16T04:27:25;2.40;;;1.00;;
3677;SDS011;1855;50.934;6.958;2022-10-16T04:29:53;1.52;;;1.17;;
3677;SDS011;1855;50.934;6.958;2022-10-16T04:32:21;1.90;;;1.10;;
3677;SDS011;1855;50.934;6.958;2022-10-16T04:34:48;1.38;;;0.82;;
3677;SDS011;1855;50.934;6.958;2022-10-16T04:37:14;1.30;;;1.00;;
3677;SDS011;1855;50.934;6.958;2022-10-16T04:39:41;1.00;;;0.90;;
3677;SDS011;1855;50.934;6.958;2022-10-16T04:42:08;1.60;;;0.90;;
3677;SDS011;1855;50.934;6.958;2022-10-16T04:44:35;1.77;;;0.90;;
3677;SDS011;1855;50.934;6.958;2022-10-16T04:47:02;1.00;;;0.90;;
3677;SDS011;1855;50.934;6.958;2022-10-16T04:49:31;1.70;;;1.00;;
3677;SDS011;1855;50.934;6.958;2022-10-16T04:51:57;1.40;;;1.10;;
3677;SDS011;1855;50.934;6.958;2022-10-16T04:54:24;1.20;;;1.00;;
3677;SDS011;1855;50.934;6.958;2022-10-16T04:56:51;1.25;;;1.00;;
3677;SDS011;1855;50.934;6.958;2022-10-16T04:59:18;1.25;;;1.10;;
3677;SDS011;1855;50.934;6.958;2022-10-16T05:01:45;3.00;;;1.30;;
3677;SDS011;1855;50.934;6.958;2022-10-16T05:04:12;1.00;;;0.90;;
3677;SDS011;1855;50.934;6.958;2022-10-16T05:06:41;1.05;;;0.95;;
3677;SDS011;1855;50.934;6.958;2022-10-16T05:09:08;1.30;;;1.20;;
3677;SDS011;1855;50.934;6.958;2022-10-16T05:11:35;1.90;;;1.00;;
3677;SDS011;1855;50.934;6.958;2022-10-16T05:14:02;2.20;;;1.20;;
3677;SDS011;1855;50.934;6.958;2022-10-16T05:16:29;1.25;;;1.15;;
3677;SDS011;1855;50.934;6.958;2022-10-16T05:18:56;1.65;;;1.17;;
3677;SDS011;1855;50.934;6.958;2022-10-16T05:21:23;1.60;;;1.20;;
3677;SDS011;1855;50.934;6.958;2022-10-16T05:23:51;1.20;;;1.02;;
3677;SDS011;1855;50.934;6.958;2022-10-16T05:26:19;3.47;;;1.30;;
3677;SDS011;1855;50.934;6.958;2022-10-16T05:28:46;1.43;;;1.20;;
3677;SDS011;1855;50.934;6.958;2022-10-16T05:31:13;2.10;;;1.40;;
3677;SDS011;1855;50.934;6.958;2022-10-16T05:33:40;2.05;;;1.10;;
3677;SDS011;1855;50.934;6.958;2022-10-16T05:36:07;2.55;;;1.17;;
3677;SDS011;1855;50.934;6.958;2022-10-16T05:38:35;1.60;;;1.38;;
3677;SDS011;1855;50.934;6.958;2022-10-16T05:41:03;1.48;;;1.38;;
3677;SDS011;1855;50.934;6.958;2022-10-16T05:43:31;1.98;;;1.70;;
3677;SDS011;1855;50.934;6.958;2022-10-16T05:45:59;1.70;;;1.20;;
3677;SDS011;1855;50.934;6.958;2022-10-16T05:48:27;2.60;;;1.50;;
3677;SDS011;1855;50.934;6.958;2022-10-16T05:50:57;1.92;;;1.30;;
3677;SDS011;1855;50.934;6.958;2022-10-16T05:53:24;1.80;;;1.30;;
3677;SDS011;1855;50.934;6.958;2022-10-16T05:55:52;2.10;;;1.50;;
3677;SDS011;1855;50.934;6.958;2022-10-16T05:58:21;2.45;;;1.42;;
3677;SDS011;1855;50.934;6.958;2022-10-16T06:00:54;2.55;;;1.70;;
3677;SDS011;1855;50.934;6.958;2022-10-16T06:03:22;3.50;;;1.70;;
3677;SDS011;1855;50.934;6.958;2022-10-16T06:05:49;1.73;;;1.60;;
3677;SDS011;1855;50.934;6.958;2022-10-16T06:08:16;3.17;;;1.63;;
3677;SDS011;1855;50.934;6.958;2022-10-16T06:10:43;2.88;;;1.70;;
3677;SDS011;1855;50.934;6.958;2022-10-16T06:13:11;1.90;;;1.52;;
3677;SDS011;1855;50.934;6.958;2022-10-16T06:15:39;1.73;;;1.63;;
3677;SDS011;1855;50.934;6.958;2022-10-16T06:18:07;1.90;;;1.60;;
3677;SDS011;1855;50.934;6.958;2022-10-16T06:20:34;1.98;;;1.77;;
3677;SDS011;1855;50.934;6.958;2022-10-16T06:23:01;2.90;;;1.80;;
3677;SDS011;1855;50.934;6.958;2022-10-16T06:25:29;2.90;;;1.80;;
3677;SDS011;1855;50.934;6.958;2022-10-16T06:27:55;2.20;;;2.00;;
3677;SDS011;1855;50.934;6.958;2022-10-16T06:30:22;1.80;;;1.60;;
3677;SDS011;1855;50.934;6.958;2022-10-16T06:32:51;1.90;;;1.80;;
3677;SDS011;1855;50.934;6.958;2022-10-16T06:35:17;2.10;;;1.90;;
3677;SDS011;1855;50.934;6.958;2022-10-16T06:37:44;1.90;;;1.70;;
3677;SDS011;1855;50.934;6.958;2022-10-16T06:40:11;2.35;;;1.80;;
3677;SDS011;1855;50.934;6.958;2022-10-16T06:42:39;2.90;;;1.60;;
3677;SDS011;1855;50.934;6.958;2022-10-16T06:45:06;2.55;;;1.70;;
3677;SDS011;1855;50.934;6.958;2022-10-16T06:47:33;3.80;;;1.90;;
3677;SDS011;1855;50.934;6.958;2022-10-16T06:50:02;1.77;;;1.67;;
3677;SDS011;1855;50.934;6.958;2022-10-16T06:52:31;1.90;;;1.70;;
3677;SDS011;1855;50.934;6.958;2022-10-16T06:54:58;2.90;;;1.73;;
3677;SDS011;1855;50.934;6.958;2022-10-16T06:57:25;1.80;;;1.70;;
3677;SDS011;1855;50.934;6.958;2022-10-16T06:59:52;1.98;;;1.63;;
3677;SDS011;1855;50.934;6.958;2022-10-16T07:02:19;3.00;;;1.70;;
3677;SDS011;1855;50.934;6.958;2022-10-16T07:04:53;1.70;;;1.40;;
3677;SDS011;1855;50.934;6.958;2022-10-16T07:07:23;2.42;;;1.50;;
3677;SDS011;1855;50.934;6.958;2022-10-16T07:09:51;2.38;;;1.80;;
3677;SDS011;1855;50.934;6.958;2022-10-16T07:12:18;2.90;;;1.70;;
3677;SDS011;1855;50.934;6.958;2022-10-16T07:14:45;2.00;;;1.60;;
3677;SDS011;1855;50.934;6.958;2022-10-16T07:17:12;1.88;;;1.70;;
3677;SDS011;1855;50.934;6.958;2022-10-16T07:19:38;2.78;;;1.60;;
3677;SDS011;1855;50.934;6.958;2022-10-16T07:22:05;1.60;;;1.50;;
3677;SDS011;1855;50.934;6.958;2022-10-16T07:24:33;2.30;;;1.50;;
3677;SDS011;1855;50.934;6.958;2022-10-16T07:27:00;2.97;;;1.60;;
3677;SDS011;1855;50.934;6.958;2022-10-16T07:29:27;1.83;;;1.70;;
3677;SDS011;1855;50.934;6.958;2022-10-16T07:31:53;2.00;;;1.80;;
3677;SDS011;1855;50.934;6.958;2022-10-16T07:34:20;2.00;;;1.60;;
3677;SDS011;1855;50.934;6.958;2022-10-16T07:36:47;2.40;;;1.50;;
3677;SDS011;1855;50.934;6.958;2022-10-16T07:39:15;2.40;;;1.50;;
3677;SDS011;1855;50.934;6.958;2022-10-16T07:41:43;3.20;;;1.40;;
3677;SDS011;1855;50.934;6.958;2022-10-16T07:44:10;2.22;;;1.50;;
3677;SDS011;1855;50.934;6.958;2022-10-16T07:46:36;1.80;;;1.60;;
3677;SDS011;1855;50.934;6.958;2022-10-16T07:49:03;1.93;;;1.40;;
3677;SDS011;1855;50.934;6.958;2022-10-16T07:51:30;2.60;;;1.33;;
3677;SDS011;1855;50.934;6.958;2022-10-16T07:53:57;1.45;;;1.35;;
3677;SDS011;1855;50.934;6.958;2022-10-16T07:56:24;2.10;;;1.50;;
3677;SDS011;1855;50.934;6.958;2022-10-16T07:58:52;1.60;;;1.10;;
3677;SDS011;1855;50.934;6.958;2022-10-16T08:01:19;1.70;;;1.33;;
3677;SDS011;1855;50.934;6.958;2022-10-16T08:03:46;1.90;;;1.40;;
3677;SDS011;1855;50.934;6.958;2022-10-16T08:06:15;1.60;;;1.30;;
3677;SDS011;1855;50.934;6.958;2022-10-16T08:08:42;2.20;;;1.60;;
3677;SDS011;1855;50.934;6.958;2022-10-16T08:11:09;1.60;;;1.35;;
3677;SDS011;1855;50.934;6.958;2022-10-16T08:13:36;4.20;;;1.30;;
3677;SDS011;1855;50.934;6.958;2022-10-16T08:16:04;2.77;;;1.40;;
3677;SDS011;1855;50.934;6.958;2022-10-16T08:18:33;1.30;;;1.20;;
3677;SDS011;1855;50.934;6.958;2022-10-16T08:21:00;1.50;;;1.35;;
3677;SDS011;1855;50.934;6.958;2022-10-16T08:23:27;1.42;;;1.00;;
3677;SDS011;1855;50.934;6.958;2022-10-16T08:25:54;1.70;;;1.10;;
3677;SDS011;1855;50.934;6.958;2022-10-16T08:28:22;2.00;;;1.00;;
3677;SDS011;1855;50.934;6.958;2022-10-16T08:30:49;2.30;;;1.13;;
3677;SDS011;1855;50.934;6.958;2022-10-16T08:33:17;1.90;;;1.10;;
3677;SDS011;1855;50.934;6.958;2022-10-16T08:35:50;1.60;;;0.90;;
3677;SDS011;1855;50.934;6.958;2022-10-16T08:38:17;1.20;;;0.80;;
3677;SDS011;1855;50.934;6.958;2022-10-16T08:40:44;1.90;;;1.20;;
3677;SDS011;1855;50.934;6.958;2022-10-16T08:43:19;1.73;;;0.70;;
3677;SDS011;1855;50.934;6.958;2022-10-16T08:48:52;1.02;;;0.70;;
3677;SDS011;1855;50.934;6.958;2022-10-16T08:51:22;1.30;;;0.70;;
3677;SDS011;1855;50.934;6.958;2022-10-16T08:53:51;1.83;;;0.70;;
3677;SDS011;1855;50.934;6.958;2022-10-16T08:56:20;1.15;;;0.70;;
3677;SDS011;1855;50.934;6.958;2022-10-16T08:58:48;1.67;;;0.70;;
3677;SDS011;1855;50.934;6.958;2022-10-16T09:01:17;1.45;;;0.50;;
3677;SDS011;1855;50.934;6.958;2022-10-16T09:03:54;1.63;;;0.70;;
3677;SDS011;1855;50.934;6.958;2022-10-16T09:06:39;1.10;;;0.60;;
3677;SDS011;1855;50.934;6.958;2022-10-16T09:09:18;1.30;;;0.80;;
3677;SDS011;1855;50.934;6.958;2022-10-16T09:11:57;1.50;;;0.70;;
3677;SDS011;1855;50.934;6.958;2022-10-16T09:14:35;0.90;;;0.60;;
3677;SDS011;1855;50.934;6.958;2022-10-16T09:17:28;1.30;;;0.70;;
3677;SDS011;1855;50.934;6.958;2022-10-16T09:20:13;1.20;;;0.60;;
3677;SDS011;1855;50.934;6.958;2022-10-16T09:22:45;1.00;;;0.70;;
3677;SDS011;1855;50.934;6.958;2022-10-16T09:25:13;1.27;;;0.77;;
3677;SDS011;1855;50.934;6.958;2022-10-16T09:27:42;1.95;;;0.68;;
3677;SDS011;1855;50.934;6.958;2022-10-16T09:30:11;1.80;;;0.60;;
3677;SDS011;1855;50.934;6.958;2022-10-16T09:32:47;2.10;;;0.60;;
3677;SDS011;1855;50.934;6.958;2022-10-16T09:35:18;1.27;;;0.60;;
3677;SDS011;1855;50.934;6.958;2022-10-16T09:37:47;1.20;;;0.50;;
3677;SDS011;1855;50.934;6.958;2022-10-16T09:40:24;1.35;;;0.70;;
3677;SDS011;1855;50.934;6.958;2022-10-16T09:42:53;0.98;;;0.60;;
3677;SDS011;1855;50.934;6.958;2022-10-16T09:45:29;0.85;;;0.50;;
3677;SDS011;1855;50.934;6.958;2022-10-16T09:47:55;1.95;;;0.90;;
3677;SDS011;1855;50.934;6.958;2022-10-16T09:50:24;1.40;;;0.52;;
3677;SDS011;1855;50.934;6.958;2022-10-16T09:53:06;2.30;;;0.60;;
3677;SDS011;1855;50.934;6.958;2022-10-16T09:55:47;1.70;;;0.60;;
3677;SDS011;1855;50.934;6.958;2022-10-16T09:58:15;1.50;;;0.50;;
3677;SDS011;1855;50.934;6.958;2022-10-16T10:00:42;1.25;;;0.70;;
3677;SDS011;1855;50.934;6.958;2022-10-16T10:03:33;1.00;;;0.50;;
3677;SDS011;1855;50.934;6.958;2022-10-16T10:06:05;2.50;;;0.80;;
3677;SDS011;1855;50.934;6.958;2022-10-16T10:08:52;0.90;;;0.70;;
3677;SDS011;1855;50.934;6.958;2022-10-16T10:11:36;1.60;;;0.50;;
3677;SDS011;1855;50.934;6.958;2022-10-16T10:14:05;1.10;;;0.60;;
3677;SDS011;1855;50.934;6.958;2022-10-16T10:16:32;1.30;;;0.50;;
3677;SDS011;1855;50.934;6.958;2022-10-16T10:18:59;1.50;;;0.50;;
3677;SDS011;1855;50.934;6.958;2022-10-16T10:21:27;1.77;;;0.55;;
3677;SDS011;1855;50.934;6.958;2022-10-16T10:23:57;0.80;;;0.40;;
3677;SDS011;1855;50.934;6.958;2022-10-16T10:26:25;2.10;;;0.70;;
3677;SDS011;1855;50.934;6.958;2022-10-16T10:28:55;1.20;;;0.70;;
3677;SDS011;1855;50.934;6.958;2022-10-16T10:31:32;1.20;;;0.70;;
3677;SDS011;1855;50.934;6.958;2022-10-16T10:34:07;1.20;;;0.70;;
3677;SDS011;1855;50.934;6.958;2022-10-16T10:36:44;1.40;;;0.70;;
3677;SDS011;1855;50.934;6.958;2022-10-16T10:39:20;2.10;;;0.60;;
3677;SDS011;1855;50.934;6.958;2022-10-16T10:42:06;0.83;;;0.40;;
3677;SDS011;1855;50.934;6.958;2022-10-16T10:44:49;2.00;;;0.70;;
3677;SDS011;1855;50.934;6.958;2022-10-16T10:47:30;2.65;;;0.50;;
3677;SDS011;1855;50.934;6.958;2022-10-16T10:50:07;2.25;;;0.60;;
3677;SDS011;1855;50.934;6.958;2022-10-16T10:52:47;1.63;;;0.50;;
3677;SDS011;1855;50.934;6.958;2022-10-16T10:55:23;1.20;;;0.60;;
3677;SDS011;1855;50.934;6.958;2022-10-16T11:01:12;1.65;;;0.55;;
3677;SDS011;1855;50.934;6.958;2022-10-16T11:03:47;1.80;;;0.50;;
3677;SDS011;1855;50.934;6.958;2022-10-16T11:06:31;1.60;;;0.50;;
3677;SDS011;1855;50.934;6.958;2022-10-16T11:09:02;2.30;;;0.60;;
3677;SDS011;1855;50.934;6.958;2022-10-16T11:11:36;1.00;;;0.60;;
3677;SDS011;1855;50.934;6.958;2022-10-16T11:14:10;0.80;;;0.40;;
3677;SDS011;1855;50.934;6.958;2022-10-16T11:16:43;1.17;;;0.60;;
3677;SDS011;1855;50.934;6.958;2022-10-16T11:19:20;1.60;;;0.52;;
3677;SDS011;1855;50.934;6.958;2022-10-16T11:21:55;1.00;;;0.60;;
3677;SDS011;1855;50.934;6.958;2022-10-16T11:24:34;1.67;;;0.50;;
3677;SDS011;1855;50.934;6.958;2022-10-16T11:27:04;2.65;;;0.60;;
3677;SDS011;1855;50.934;6.958;2022-10-16T11:29:35;1.20;;;0.60;;
3677;SDS011;1855;50.934;6.958;2022-10-16T11:32:14;1.00;;;0.40;;
3677;SDS011;1855;50.934;6.958;2022-10-16T11:34:49;1.90;;;0.50;;
3677;SDS011;1855;50.934;6.958;2022-10-16T11:37:20;1.00;;;0.43;;
3677;SDS011;1855;50.934;6.958;2022-10-16T11:39:51;0.83;;;0.40;;
3677;SDS011;1855;50.934;6.958;2022-10-16T11:42:22;0.80;;;0.40;;
3677;SDS011;1855;50.934;6.958;2022-10-16T11:44:57;1.60;;;0.40;;
3677;SDS011;1855;50.934;6.958;2022-10-16T11:47:31;1.60;;;0.50;;
3677;SDS011;1855;50.934;6.958;2022-10-16T11:50:01;1.00;;;0.40;;
3677;SDS011;1855;50.934;6.958;2022-10-16T11:52:36;2.03;;;0.60;;
3677;SDS011;1855;50.934;6.958;2022-10-16T11:55:13;1.20;;;0.60;;
3677;SDS011;1855;50.934;6.958;2022-10-16T11:57:43;1.30;;;0.50;;
3677;SDS011;1855;50.934;6.958;2022-10-16T12:00:17;1.30;;;0.60;;
3677;SDS011;1855;50.934;6.958;2022-10-16T12:02:50;1.30;;;0.50;;
3677;SDS011;1855;50.934;6.958;2022-10-16T12:05:25;1.20;;;0.50;;
3677;SDS011;1855;50.934;6.958;2022-10-16T12:08:02;1.08;;;0.50;;
3677;SDS011;1855;50.934;6.958;2022-10-16T12:10:35;1.30;;;0.40;;
3677;SDS011;1855;50.934;6.958;2022-10-16T12:13:03;1.42;;;0.40;;
3677;SDS011;1855;50.934;6.958;2022-10-16T12:15:31;1.88;;;0.60;;
3677;SDS011;1855;50.934;6.958;2022-10-16T12:17:59;1.60;;;0.60;;
3677;SDS011;1855;50.934;6.958;2022-10-16T12:20:27;1.00;;;0.50;;
3677;SDS011;1855;50.934;6.958;2022-10-16T12:22:57;1.50;;;0.52;;
3677;SDS011;1855;50.934;6.958;2022-10-16T12:25:27;0.90;;;0.40;;
3677;SDS011;1855;50.934;6.958;2022-10-16T12:27:57;0.82;;;0.40;;
3677;SDS011;1855;50.934;6.958;2022-10-16T12:30:27;0.98;;;0.40;;
3677;SDS011;1855;50.934;6.958;2022-10-16T12:32:56;1.90;;;0.75;;
3677;SDS011;1855;50.934;6.958;2022-10-16T12:35:25;1.10;;;0.50;;
3677;SDS011;1855;50.934;6.958;2022-10-16T12:38:03;1.50;;;0.50;;
3677;SDS011;1855;50.934;6.958;2022-10-16T12:40:32;1.10;;;0.50;;
3677;SDS011;1855;50.934;6.958;2022-10-16T12:43:13;1.25;;;0.50;;
3677;SDS011;1855;50.934;6.958;2022-10-16T12:46:02;2.20;;;0.60;;
3677;SDS011;1855;50.934;6.958;2022-10-16T12:48:30;1.20;;;0.40;;
3677;SDS011;1855;50.934;6.958;2022-10-16T12:51:08;1.95;;;0.50;;
3677;SDS011;1855;50.934;6.958;2022-10-16T12:53:36;1.30;;;0.70;;
3677;SDS011;1855;50.934;6.958;2022-10-16T12:56:04;1.67;;;0.55;;
3677;SDS011;1855;50.934;6.958;2022-10-16T12:58:49;1.20;;;0.70;;
3677;SDS011;1855;50.934;6.958;2022-10-16T13:01:28;1.10;;;0.63;;
3677;SDS011;1855;50.934;6.958;2022-10-16T13:07:00;1.30;;;0.50;;
3677;SDS011;1855;50.934;6.958;2022-10-16T13:09:44;0.90;;;0.60;;
3677;SDS011;1855;50.934;6.958;2022-10-16T13:12:24;0.75;;;0.50;;
3677;SDS011;1855;50.934;6.958;2022-10-16T13:15:11;2.00;;;0.50;;
3677;SDS011;1855;50.934;6.958;2022-10-16T13:17:49;1.58;;;0.60;;
3677;SDS011;1855;50.934;6.958;2022-10-16T13:20:21;1.27;;;0.70;;
3677;SDS011;1855;50.934;6.958;2022-10-16T13:22:57;0.70;;;0.40;;
3677;SDS011;1855;50.934;6.958;2022-10-16T13:25:34;1.23;;;0.60;;
3677;SDS011;1855;50.934;6.958;2022-10-16T13:28:10;1.13;;;0.50;;
3677;SDS011;1855;50.934;6.958;2022-10-16T13:30:40;1.00;;;0.50;;
3677;SDS011;1855;50.934;6.958;2022-10-16T13:33:12;2.10;;;0.60;;
3677;SDS011;1855;50.934;6.958;2022-10-16T13:35:47;1.60;;;0.70;;
3677;SDS011;1855;50.934;6.958;2022-10-16T13:38:16;1.08;;;0.70;;
3677;SDS011;1855;50.934;6.958;2022-10-16T13:40:49;1.20;;;0.70;;
3677;SDS011;1855;50.934;6.958;2022-10-16T13:43:17;1.50;;;0.60;;
3677;SDS011;1855;50.934;6.958;2022-10-16T13:45:53;0.80;;;0.40;;
3677;SDS011;1855;50.934;6.958;2022-10-16T13:48:21;1.40;;;0.50;;
3677;SDS011;1855;50.934;6.958;2022-10-16T13:50:57;1.27;;;0.60;;
3677;SDS011;1855;50.934;6.958;2022-10-16T13:53:25;1.50;;;0.50;;
3677;SDS011;1855;50.934;6.958;2022-10-16T13:55:52;0.80;;;0.50;;
3677;SDS011;1855;50.934;6.958;2022-10-16T13:58:19;0.90;;;0.50;;
3677;SDS011;1855;50.934;6.958;2022-10-16T14:00:54;1.40;;;0.60;;
3677;SDS011;1855;50.934;6.958;2022-10-16T14:03:23;1.00;;;0.50;;
3677;SDS011;1855;50.934;6.958;2022-10-16T14:05:51;1.80;;;0.50;;
3677;SDS011;1855;50.934;6.958;2022-10-16T14:08:19;1.08;;;0.60;;
3677;SDS011;1855;50.934;6.958;2022-10-16T14:10:47;1.00;;;0.40;;
3677;SDS011;1855;50.934;6.958;2022-10-16T14:13:15;1.38;;;0.50;;
3677;SDS011;1855;50.934;6.958;2022-10-16T14:15:46;0.90;;;0.50;;
3677;SDS011;1855;50.934;6.958;2022-10-16T14:18:19;0.85;;;0.50;;
3677;SDS011;1855;50.934;6.958;2022-10-16T14:20:48;0.88;;;0.50;;
3677;SDS011;1855;50.934;6.958;2022-10-16T14:23:19;1.50;;;0.47;;
3677;SDS011;1855;50.934;6.958;2022-10-16T14:25:49;1.20;;;0.60;;
3677;SDS011;1855;50.934;6.958;2022-10-16T14:28:16;1.00;;;0.60;;
3677;SDS011;1855;50.934;6.958;2022-10-16T14:30:50;1.48;;;0.50;;
3677;SDS011;1855;50.934;6.958;2022-10-16T14:33:21;1.00;;;0.50;;
3677;SDS011;1855;50.934;6.958;2022-10-16T14:35:59;1.40;;;0.70;;
3677;SDS011;1855;50.934;6.958;2022-10-16T14:38:28;1.10;;;0.60;;
3677;SDS011;1855;50.934;6.958;2022-10-16T14:40:56;1.20;;;0.50;;
3677;SDS011;1855;50.934;6.958;2022-10-16T14:43:26;1.80;;;0.50;;
3677;SDS011;1855;50.934;6.958;2022-10-16T14:45:57;0.70;;;0.50;;
3677;SDS011;1855;50.934;6.958;2022-10-16T14:48:26;1.50;;;0.50;;
3677;SDS011;1855;50.934;6.958;2022-10-16T14:50:53;1.00;;;0.70;;
3677;SDS011;1855;50.934;6.958;2022-10-16T14:53:21;1.40;;;0.68;;
3677;SDS011;1855;50.934;6.958;2022-10-16T14:55:47;1.20;;;0.70;;
3677;SDS011;1855;50.934;6.958;2022-10-16T14:58:15;1.60;;;0.60;;
3677;SDS011;1855;50.934;6.958;2022-10-16T15:00:43;1.65;;;0.60;;
3677;SDS011;1855;50.934;6.958;2022-10-16T15:03:11;1.52;;;0.60;;
3677;SDS011;1855;50.934;6.958;2022-10-16T15:05:39;2.33;;;0.70;;
3677;SDS011;1855;50.934;6.958;2022-10-16T15:08:06;1.55;;;0.70;;
3677;SDS011;1855;50.934;6.958;2022-10-16T15:10:35;1.90;;;0.90;;
3677;SDS011;1855;50.934;6.958;2022-10-16T15:13:05;2.40;;;0.80;;
3677;SDS011;1855;50.934;6.958;2022-10-16T15:15:34;1.00;;;0.60;;
3677;SDS011;1855;50.934;6.958;2022-10-16T15:18:03;1.00;;;0.60;;
3677;SDS011;1855;50.934;6.958;2022-10-16T15:20:31;1.10;;;0.60;;
3677;SDS011;1855;50.934;6.958;2022-10-16T15:23:01;1.20;;;0.70;;
3677;SDS011;1855;50.934;6.958;2022-10-16T15:25:31;1.20;;;0.60;;
3677;SDS011;1855;50.934;6.958;2022-10-16T15:28:01;1.00;;;0.60;;
3677;SDS011;1855;50.934;6.958;2022-10-16T15:30:30;1.40;;;0.53;;
3677;SDS011;1855;50.934;6.958;2022-10-16T15:32:56;1.42;;;0.60;;
3677;SDS011;1855;50.934;6.958;2022-10-16T15:35:23;1.30;;;0.70;;
3677;SDS011;1855;50.934;6.958;2022-10-16T15:37:50;2.00;;;0.90;;
3677;SDS011;1855;50.934;6.958;2022-10-16T15:40:19;1.95;;;0.98;;
3677;SDS011;1855;50.934;6.958;2022-10-16T15:42:47;2.20;;;1.10;;